Home   Weather   Lewes   Past weeks
Flag for USA

Past Weather in Lewes, USA — Yesterday and Last 2 Weeks

Currently: 51 °F. Overcast. (Weather station: Sussex County Airport, USA). See more current weather

Past Weather in Lewes — Graph

°F

Lewes Temperature Yesterday

Maximum temperature yesterday: 68 °F (at 2:20 pm)
Minimum temperature yesterday: 48 °F (at 11:54 pm)
Average temperature yesterday: 57 °F

High & Low Weather Summary for the Past Weeks

 TemperatureHumidityPressure
High86 °F (Apr 15, 3:54 pm)100% (Apr 8, 5:54 am)30.22 "Hg (Apr 8, 5:54 am)
Low36 °F (Apr 8, 6:54 am)21% (Apr 14, 3:54 pm)29.39 "Hg (Apr 12, 7:54 am)
Average58 °F65%29.90 "Hg
* Reported Apr 4 9:54 am — Apr 19 9:54 am, Lewes. Weather by CustomWeather, © 2024

Note: Actual official high and low records may vary slightly from our data, if they occured in-between our weather recording intervals... More about our weather records

Lewes Weather History for the Previous 24 Hours

Scroll right to see more
 ConditionsComfort  
Time TempWeatherWind HumidityBarometerVisibility
9:54 am
Fri, Apr 19
50 °FOvercast.7 mph83%30.15 "Hg10 mi
8:54 am49 °FOvercast.8 mph86%30.14 "Hg10 mi
8:01 am48 °FLow clouds.12 mph93%30.13 "Hg7 mi
6:54 am48 °FOvercast.6 mph89%30.14 "Hg9 mi
5:54 am48 °FOvercast.7 mph86%30.13 "Hg10 mi
4:54 am48 °FOvercast.8 mph86%30.10 "Hg10 mi
3:54 am49 °FOvercast.9 mph86%30.11 "Hg10 mi
2:54 am49 °FOvercast.12 mph86%30.11 "Hg10 mi
1:54 am49 °FOvercast.9 mph86%30.14 "Hg10 mi
12:54 am49 °FOvercast.10 mph84%30.14 "Hg10 mi
11:54 pm
Thu, Apr 18
48 °FOvercast.9 mph83%30.14 "Hg10 mi
10:54 pm49 °FOvercast.9 mph84%30.15 "Hg10 mi
10:05 pm50 °FOvercast.9 mph83%30.13 "Hg10 mi
9:27 pm51 °FOvercast.12 mph80%30.12 "Hg10 mi
8:54 pm50 °FOvercast.12 mph86%30.10 "Hg10 mi
8:09 pm49 °FPartly cloudy.10 mph86%30.08 "Hg10 mi
7:54 pm50 °FPassing clouds.13 mph83%30.07 "Hg10 mi
7:12 pm52 °FScattered clouds.13 mph80%30.07 "Hg10 mi
7:04 pm53 °FPartly sunny.12 mph80%30.06 "Hg10 mi
5:54 pm60 °FPartly sunny.14 mph69%30.05 "Hg10 mi
4:54 pm63 °FSunny.16 mph68%30.02 "Hg10 mi
3:54 pm65 °FSunny.14 mph66%30.00 "Hg10 mi
2:54 pm68 °FScattered clouds.13 mph61%30.01 "Hg10 mi
2:20 pm68 °FScattered clouds.9 mph63%30.01 "Hg10 mi
1:54 pm67 °FPartly sunny.10 mph66%30.02 "Hg10 mi
12:54 pm65 °FOvercast.9 mph70%30.01 "Hg10 mi
12:34 pm67 °FMostly cloudy.10 mph66%30.01 "Hg10 mi
Weather by CustomWeather, © 2024

See weather overview